首页
METAR-TAF:

METAR-TAF

机场 :

新奥尔良路易斯阿姆斯特朗国际机场

新奥尔良, 路易斯安那州, 美国

纬度: 29-59-34N, 经度: 090-15-03W, 海拔: 1米

当前天气观测

该预报发布于32分钟前的12:53 UTC
风速9节,风向南转南东
温度 28°C
湿度 74%
气压 1014 hPa
能見度: 16.1公里
少量云层高于1700英尺

METAR: KMSY 221253Z 15009KT 10SM FEW017 28/23 A2995 RMK AO2 SLP146 T02780233

时间: 08:25 (13:25 UTC)

预报

该预报发布于2小时和5分钟前的11:20 UTC
预报有效从22日的 12点(UTC)到 23日的 18点(UTC)
风速10节,风向南转南东
能見度: 10公里
散云层高于2000英尺
散云层高于6000英尺
从 22日的 1600点(UTC)
风速11节,风向南转南东
能見度: 10公里
少量云层高于3000英尺
散云层高于12000英尺
从 23日的 0900点(UTC)
风速6节,风向东南
能見度: 10公里
多云层高于1500英尺

TAF: KMSY 221120Z 2212/2318 15010KT P6SM SCT020 SCT060 FM221600 16011KT P6SM FEW030 SCT120 FM230900 14006KT P6SM BKN015

超过4000个机场的气象观测和天气预报(METAR&TAF报告)。

可查询的气象台以黄色和红色小点在地图上表示。

将鼠标移到小点上方,可查看气象台名称。

然后点击查看天气观测和预报。

如需切换地图:点击带黑十字的绿色按钮放大地图;点击带横线的绿色按钮缩小地图;或者点击绿色箭头查看邻近地区的地图。


METAR-TAF: